Milford, Utah Weather observations

Data are for observation ending at time listed.
 Day   Time    Ave.   Ave.  Ave.  Vector   Max.   Stn.    Total    Solar   Ave.  
  of    of     Air    Rel.  Wind   Wind    Wind   Baro.  Precip.   Rad.    Soil  
Year   Day     Temp.  Hum.  Speed  Dir.    Gust   Pres.                    Temp. 
2014   (MST)    F      %     mph   deg.    mph     mb.     in.     W/m2     F   
------------------------------------------------------------------------------
 208    9:10   77.6    40    4.2   170      7.1   854.3    0.00     519    99999.0
 208    9:20   77.7    39    5.6   168      9.6   854.5    0.00     422    99999.0
 208    9:30   78.3    38    4.3   170      8.7   854.5    0.00     528    99999.0
 208    9:40   79.1    36    3.5   173      6.6   854.5    0.00     427    99999.0
 208    9:50   79.5    36    4.7   169      9.3   854.5    0.00     578    99999.0
 208   10:00   80.8    33    4.5   165      8.8   854.5    0.00     646    99999.0
 208   10:10   81.5    32    3.9   168      7.8   854.6    0.00     647    99999.0
 208   10:20   82.5    30    3.8   154      6.6   854.7    0.00     675    99999.0
 208   10:30   83.4    30    3.6   154      7.2   854.7    0.00     693    99999.0
 208   10:40   85.0    29    1.9   172      5.4   854.6    0.00     710    99999.0
 208   10:50   86.0    26    2.8   168      9.5   854.6    0.00     722    99999.0
 208   11:00   86.2    24    4.2   151      8.4   854.6    0.00     735    74.5
 208   11:10   86.6    23    3.8   154      8.3   854.6    0.00     750    99999.0
 208   11:20   87.3    24    3.9   160      8.4   854.6    0.00     767    99999.0
 208   11:30   88.1    22    3.9   179     10.7   854.5    0.00     777    99999.0
 208   11:40   88.4    21    4.7   161      8.9   854.4    0.00     789    99999.0
 208   11:50   88.8    20    3.6   156      8.2   854.3    0.00     798    74.6
 208   12:00   89.5    20    4.6   170     11.0   854.2    0.00     803    74.6
 208   12:10   90.1    19    2.9   180      7.2   854.0    0.00     810    74.6
 208   12:20   90.8    17    1.3    54      4.2   853.9    0.00     826    99999.0
 208   12:30   91.1    18    1.3   158      5.3   853.9    0.00     817    99999.0
 208   12:40   92.1    17    2.3   164      9.3   853.9    0.00     814    99999.0
 208   12:50   93.0    17    1.6   160      4.3   853.9    0.00     817    99999.0
 208   13:00   92.5    17    4.4   175     10.4   853.9    0.00     814    99999.0
 208   13:10   92.4    16    3.9   162      8.3   854.0    0.00     811    99999.0
 208   13:20   93.5    16    3.5   164      8.6   854.0    0.00     809    99999.0
 208   13:30   93.5    17    1.4   168      6.9   854.0    0.00     810    99999.0
 208   13:40   93.4    16    2.9   167      7.5   853.9    0.00     805    99999.0
 208   13:50   93.8    15    2.6   170     11.2   853.8    0.00     799    99999.0
 208   14:00   93.4    15    3.0   151      9.3   853.7    0.00     790    99999.0
 208   14:10   94.0    14    4.9   158     11.2   853.7    0.00     778    99999.0
 208   14:20   94.4    14    3.3   167      9.6   853.6    0.00     768    99999.0
 208   14:30   94.6    13    2.7   188      5.8   853.6    0.00     757    75.0
 208   14:40   95.0    13    1.3    46      4.9   853.4    0.00     750    75.1
 208   14:50   95.6    12    1.9   188      6.8   853.3    0.00     736    99999.0
 208   15:00   94.9    12    3.6   167      8.8   853.2    0.00     705    99999.0
 208   15:10   96.2    12    1.6   152      8.4   853.1    0.00     709    99999.0
 208   15:20   95.5    12    3.5   160     11.3   853.0    0.00     695    99999.0
 208   15:30   95.5    12    3.2   173      9.3   852.9    0.00     631    99999.0
 208   15:40   94.8    12    2.0   161      6.6   852.7    0.00     537    99999.0
 208   15:50   95.3    13    3.0   169      7.5   852.6    0.00     586    99999.0
 208   16:00   96.3    12    2.5   165      9.6   852.6    0.00     651    99999.0
 208   16:10   95.8    13    2.8   182      7.0   852.7    0.00     530    99999.0
 208   16:20   95.1    14    6.3   180     14.5   852.7    0.00     602    99999.0
 208   16:30   94.7    15    6.1   185     13.4   852.7    0.00     437    75.8
 208   16:40   92.9    16    6.7   182     15.1   852.6    0.00     370    99999.0
 208   16:50   92.9    19    6.0   198     16.1   852.3    0.00     471    99999.0
 208   17:00   92.1    20    4.8   198     12.7   852.3    0.00     315    99999.0
 208   17:10   91.5    21    3.8   208      9.6   852.3    0.00     201    99999.0
 208   17:20   90.3    22    3.5   221     12.6   852.3    0.00     181    99999.0
 208   17:30   89.2    22    4.1   200     10.2   852.3    0.00     149    99999.0
 208   17:40   88.4    24    4.1   198      8.2   852.1    0.00     101    99999.0
 208   17:50   87.9    24    5.6   185     13.7   852.0    0.00      73    99999.0
 208   18:00   85.6    26    6.9   157     11.4   852.1    0.00      52    99999.0
 208   18:10   84.2    28    3.3   163      7.8   852.0    0.00      42    99999.0
 208   18:20   84.5    27    2.0   202      5.4   852.1    0.00      40    99999.0
 208   18:30   84.4    26    3.5   171      8.7   852.1    0.00      36    99999.0
 208   18:40   85.1    24    4.1   162      9.4   852.3    0.00      39    76.9
 208   18:50   85.1    24    3.9   157      8.3   852.3    0.00      40    76.9
 208   19:00   84.7    25    2.6   174      7.1   852.3    0.00      39    77.0
 208   19:10   84.6    25    2.3   174      5.8   852.3    0.00      28    77.1
 208   19:20   84.1    26    1.6   229      3.8   852.4    0.00      20    77.1
 208   19:30   83.8    26    3.9    13      8.4   852.6    0.00      11    99999.0
 208   19:40   83.6    27    1.7   344      5.1   852.7    0.00       4    99999.0
 208   19:50   82.2    29    1.0   199      3.0   852.9    0.00       2    77.3
 208   20:00   82.0    28    2.1   177      4.7   853.1    0.00       0    77.3
 208   20:10   81.8    28    0.6   217      3.7   853.1    0.00       0    77.4
 208   20:20   81.6    29    1.0   255      1.9   853.0    0.00       0    77.4
 208   20:30   81.1    30    0.3   250      1.8   853.0    0.00       0    99999.0
 208   20:40   80.5    30    0.2   260      0.8   853.1    0.00       0    99999.0
 208   20:50   80.1    30    0.5   196      1.4   853.3    0.00       0    99999.0
 208   21:00   80.2    30    0.9   236      1.5   853.3    0.00       0    99999.0
 208   21:10   80.2    30    0.3   250      1.2   853.3    0.00       0    99999.0
 208   21:20   79.6    30    0.0   222      0.5   853.3    0.00       0    99999.0
 208   21:30   79.2    30    0.5   258      1.2   853.3    0.00       0    99999.0
 208   21:40   78.4    30    1.8   182      4.3   853.3    0.00       0    99999.0
 208   21:50   77.1    34    1.7   194      4.3   853.4    0.00       0    99999.0
 208   22:00   76.4    36    2.7   188      5.3   853.3    0.00       0    99999.0
 208   22:10   75.9    38    1.2   222      3.3   853.2    0.00       0    99999.0
 208   22:20   75.5    38    1.0   249      2.1   853.0    0.00       0    99999.0
 208   22:30   76.0    37    1.3   253      2.2   852.9    0.00       0    99999.0
 208   22:40   76.2    37    0.1   272      1.1   852.9    0.00       0    99999.0
 208   22:50   75.6    38    0.6    60      3.7   853.0    0.00       0    99999.0
 208   23:00   75.5    39    3.1    28      5.5   853.2    0.00       0    99999.0
 208   23:10   76.0    39    2.7    34      6.0   853.3    0.00       0    99999.0
 208   23:20   75.0    41    0.6   305      1.8   853.2    0.00       0    99999.0
 208   23:30   74.6    41    0.7   248      1.5   853.2    0.00       0    99999.0
 208   23:40   74.1    41    0.6   128      1.5   853.1    0.00       0    99999.0
 208   23:50   73.7    42    1.5   176      2.6   853.1    0.00       0    99999.0
 209    0:00   73.0    42    1.8   226      3.1   853.1    0.00       0    99999.0
 209    0:10   72.4    43    1.9   212      3.6   853.2    0.00       0    99999.0
 209    0:20   71.6    45    2.3   220      5.3   853.2    0.00       0    99999.0
 209    0:30   70.6    48    1.6   187      3.8   853.5    0.00       0    99999.0
 209    0:40   70.7    48    1.8   243      3.2   853.5    0.00       0    99999.0
 209    0:50   71.1    47    1.9   236      3.9   853.5    0.00       0    99999.0
 209    1:00   71.3    47    2.2   239      4.4   853.5    0.00       0    99999.0
 209    1:10   71.4    46    1.6   232      4.4   853.5    0.00       0    99999.0
 209    1:20   71.5    45    1.7   232      4.0   853.4    0.00       0    99999.0
 209    1:30   71.7    46    2.2   212      5.5   853.5    0.00       0    99999.0
 209    1:40   72.0    46    3.1   181      8.0   853.6    0.00       0    99999.0
 209    1:50   72.0    46    2.9   186      6.2   853.6    0.00       0    99999.0
 209    2:00   71.7    47    3.3   180      6.5   853.6    0.00       0    99999.0
 209    2:10   71.2    48    3.8   183      6.4   853.7    0.00       0    99999.0
 209    2:20   71.0    49    4.0   185      8.0   853.6    0.00       0    99999.0
 209    2:30   70.7    50    3.7   194      8.0   853.6    0.00       0    99999.0
 209    2:40   70.6    50    3.5   201      5.8   853.6    0.00       0    99999.0
 209    2:50   70.6    50    3.2   190      5.8   853.6    0.00       0    99999.0
 209    3:00   70.3    51    3.5   185      7.2   853.7    0.00       0    99999.0
 209    3:10   70.3    51    3.6   181      6.1   853.7    0.00       0    99999.0
 209    3:20   69.3    55    3.1   185      5.2   853.7    0.00       0    99999.0
 209    3:30   68.7    56    3.0   188      5.9   853.7    0.00       0    99999.0
 209    3:40   68.6    56    2.8   189      5.4   853.6    0.00       0    99999.0
 209    3:50   68.8    57    3.2   187      6.3   853.5    0.00       0    99999.0
 209    4:00   68.4    58    2.4   192      3.9   853.6    0.00       0    99999.0
 209    4:10   68.3    58    2.0   196      4.6   853.6    0.00       0    99999.0
 209    4:20   68.0    60    1.2   213      3.1   853.5    0.01       0    99999.0
 209    4:30   67.0    62    1.8   247      3.9   853.4    0.03       0    99999.0
 209    4:40   67.3    61    1.9   241      4.1   853.2    0.03       0    99999.0
 209    4:50   67.6    60    1.4   246      3.1   853.0    0.00       0    99999.0
 209    5:00   68.2    58    1.5   254      4.0   852.9    0.00       0    99999.0
 209    5:10   68.7    58    1.0   275      2.9   852.8    0.00       0    99999.0
 209    5:20   68.9    57    1.9    22      4.7   852.9    0.00       0    99999.0
 209    5:30   68.9    58    1.1     9      2.6   853.0    0.00       0    99999.0
 209    5:40   69.2    59    1.1     7      3.8   853.0    0.00       0    99999.0
 209    5:50   68.9    61    0.9   349      3.1   852.9    0.00       2    99999.0
 209    6:00   68.3    63    0.7   219      1.8   853.0    0.00       8    99999.0
 209    6:10   68.3    62    0.0   281      0.7   853.0    0.00      17    99999.0
 209    6:20   68.9    61    0.6   318      1.9   852.8    0.00      25    99999.0
 209    6:30   69.9    57    1.3   263      4.1   852.8    0.00      34    99999.0
 209    6:40   70.6    58    0.9   239      3.9   853.1    0.00      47    99999.0
 209    6:50   70.6    58    0.8   202      2.5   853.3    0.00      72    99999.0
 209    7:00   70.8    58    1.0   217      2.9   853.6    0.00      89    99999.0
 209    7:10   71.1    57    1.3   212      4.2   853.5    0.01     116    77.2
 209    7:20   71.4    58    1.5   190      3.8   853.4    0.00     117    99999.0
 209    7:30   72.0    56    1.4   210      4.5   853.5    0.00     117    99999.0
 209    7:40   72.3    54    2.1   206      7.5   853.7    0.00     119    99999.0
 209    7:50   72.4    55    2.4   191      6.3   853.7    0.00     143    99999.0
 209    8:00   72.6    54    5.3   159      9.4   853.8    0.00     170    99999.0
 209    8:10   72.7    54    5.9   160     11.0   853.9    0.00     146    99999.0
 209    8:20   72.8    52    5.0   177     10.5   853.9    0.00     129    99999.0
 209    8:30   73.0    53    3.0   187      6.4   853.9    0.00     129    99999.0
 209    8:40   73.5    50    2.8   189      7.7   854.0    0.00     147    99999.0
 209    8:50   73.8    50    2.2   187      5.7   854.0    0.00     143    99999.0
 209    9:00   73.7    50    3.4   178      7.8   854.1    0.00     165    99999.0

Return to Milford, Utah graphs page.


Western Regional Climate Center,wrcc@dri.edu